createdAt,value
2022-10-01T00:01:42.491Z,2.35
2022-10-01T00:04:09.377Z,2.40
2022-10-01T00:06:36.145Z,2.00
2022-10-01T00:09:03.253Z,2.05
2022-10-01T00:11:31.315Z,2.42
2022-10-01T00:13:58.409Z,2.13
2022-10-01T00:16:27.422Z,1.67
2022-10-01T00:18:55.224Z,1.98
2022-10-01T00:21:24.501Z,2.05
2022-10-01T00:23:59.553Z,1.98
2022-10-01T00:26:29.459Z,2.00
2022-10-01T00:28:58.814Z,2.20
2022-10-01T00:31:26.148Z,2.25
2022-10-01T00:33:58.191Z,2.55
2022-10-01T00:36:26.057Z,2.10
2022-10-01T00:38:53.313Z,1.92
2022-10-01T00:41:20.437Z,1.80
2022-10-01T00:43:56.352Z,1.73
2022-10-01T00:46:40.528Z,1.13
2022-10-01T00:49:11.347Z,1.40
2022-10-01T00:51:45.526Z,2.17
2022-10-01T00:54:18.981Z,1.60
2022-10-01T00:56:47.126Z,1.20
2022-10-01T00:59:16.327Z,1.30
2022-10-01T01:01:43.167Z,1.50
2022-10-01T01:04:16.463Z,1.35
2022-10-01T01:06:55.727Z,1.30
2022-10-01T01:09:30.054Z,1.83
2022-10-01T01:12:08.788Z,1.25
2022-10-01T01:14:55.089Z,1.27
2022-10-01T01:17:33.128Z,1.17
2022-10-01T01:20:40.007Z,1.08
2022-10-01T01:23:18.621Z,1.20
2022-10-01T01:26:01.038Z,1.25
2022-10-01T01:28:40.851Z,1.35
2022-10-01T01:31:16.058Z,1.35
2022-10-01T01:33:45.974Z,1.45
2022-10-01T01:36:20.981Z,0.93
2022-10-01T01:38:55.539Z,1.20
2022-10-01T01:41:25.857Z,1.45
2022-10-01T01:43:57.444Z,0.93
2022-10-01T01:46:31.543Z,1.00
2022-10-01T01:49:00.872Z,1.13
2022-10-01T01:51:40.589Z,0.88
2022-10-01T01:54:08.532Z,0.80
2022-10-01T01:56:35.927Z,0.80
2022-10-01T01:59:03.492Z,1.05
2022-10-01T02:01:50.952Z,0.82
2022-10-01T02:04:23.345Z,0.90
2022-10-01T02:07:33.156Z,1.00
2022-10-01T02:10:02.842Z,0.70
2022-10-01T02:13:07.050Z,0.82
2022-10-01T02:16:09.303Z,0.77
2022-10-01T02:18:50.927Z,0.70
2022-10-01T02:21:27.228Z,0.70
2022-10-01T02:24:14.307Z,0.70
2022-10-01T02:26:44.182Z,0.57
2022-10-01T02:29:16.547Z,0.63
2022-10-01T02:31:47.162Z,0.73
2022-10-01T02:34:31.586Z,0.80
2022-10-01T02:37:01.004Z,0.57
2022-10-01T02:39:30.626Z,0.52
2022-10-01T02:41:59.180Z,0.80
2022-10-01T02:44:37.753Z,0.50
2022-10-01T02:47:50.225Z,0.50
2022-10-01T02:50:17.235Z,0.43
2022-10-01T02:52:53.540Z,0.82
2022-10-01T02:55:39.204Z,0.55
2022-10-01T02:58:07.403Z,0.55
2022-10-01T03:00:34.663Z,0.50
2022-10-01T03:03:01.510Z,0.47
2022-10-01T03:05:30.354Z,0.30
2022-10-01T03:07:57.171Z,0.35
2022-10-01T03:10:23.882Z,0.40
2022-10-01T03:12:51.325Z,0.50
2022-10-01T03:15:21.619Z,0.70
2022-10-01T03:17:52.657Z,0.35
2022-10-01T03:20:21.201Z,0.50
2022-10-01T03:22:48.260Z,0.40
2022-10-01T03:25:15.615Z,0.43
2022-10-01T03:27:42.900Z,0.52
2022-10-01T03:30:10.744Z,0.30
2022-10-01T03:32:37.653Z,0.30
2022-10-01T03:35:04.987Z,0.50
2022-10-01T03:37:32.940Z,0.40
2022-10-01T03:39:59.724Z,0.40
2022-10-01T03:42:26.379Z,0.68
2022-10-01T03:44:53.137Z,0.50
2022-10-01T03:47:19.818Z,0.75
2022-10-01T03:49:46.502Z,0.50
2022-10-01T03:52:13.339Z,0.93
2022-10-01T03:54:40.107Z,0.43
2022-10-01T03:57:06.794Z,0.70
2022-10-01T03:59:33.572Z,0.68
2022-10-01T04:02:00.519Z,0.60
2022-10-01T04:04:28.832Z,0.65
2022-10-01T04:06:55.654Z,0.82
2022-10-01T04:09:22.446Z,0.70
2022-10-01T04:11:49.332Z,0.65
2022-10-01T04:14:17.376Z,0.95
2022-10-01T04:16:45.584Z,0.98
2022-10-01T04:19:13.450Z,0.90
2022-10-01T04:21:40.336Z,1.08
2022-10-01T04:24:07.444Z,0.90
2022-10-01T04:26:36.229Z,1.10
2022-10-01T04:29:12.045Z,0.75
2022-10-01T04:31:39.990Z,0.82
2022-10-01T04:34:06.905Z,0.80
2022-10-01T04:36:33.729Z,0.75
2022-10-01T04:39:02.747Z,1.33
2022-10-01T04:41:31.426Z,0.88
2022-10-01T04:43:59.747Z,1.08
2022-10-01T04:46:26.866Z,1.10
2022-10-01T04:48:54.652Z,0.82
2022-10-01T04:51:21.419Z,0.90
2022-10-01T04:53:49.817Z,0.80
2022-10-01T04:56:16.823Z,1.02
2022-10-01T04:58:43.570Z,0.95
2022-10-01T05:01:10.382Z,1.15
2022-10-01T05:03:37.968Z,0.90
2022-10-01T05:06:04.751Z,0.98
2022-10-01T05:08:31.589Z,1.10
2022-10-01T05:11:01.614Z,1.00
2022-10-01T05:13:30.292Z,1.00
2022-10-01T05:15:58.177Z,1.30
2022-10-01T05:18:25.160Z,0.90
2022-10-01T05:20:51.949Z,1.23
2022-10-01T05:23:18.834Z,0.90
2022-10-01T05:25:46.710Z,1.15
2022-10-01T05:28:15.911Z,1.35
2022-10-01T05:30:45.658Z,0.77
2022-10-01T05:33:12.447Z,1.52
2022-10-01T05:35:41.201Z,1.05
2022-10-01T05:38:07.914Z,1.10
2022-10-01T05:40:34.668Z,1.23
2022-10-01T05:43:03.039Z,0.95
2022-10-01T05:45:31.515Z,1.25
2022-10-01T05:48:02.936Z,1.38
2022-10-01T05:50:31.792Z,1.27
2022-10-01T05:52:59.896Z,1.10
2022-10-01T05:55:31.785Z,1.23
2022-10-01T05:58:01.187Z,1.10
2022-10-01T06:00:29.587Z,1.67
2022-10-01T06:02:58.635Z,1.25
2022-10-01T06:05:26.050Z,1.35
2022-10-01T06:07:53.485Z,0.95
2022-10-01T06:10:21.061Z,1.63
2022-10-01T06:12:48.473Z,1.27
2022-10-01T06:15:17.262Z,1.40
2022-10-01T06:17:47.599Z,1.10
2022-10-01T06:20:17.127Z,1.20
2022-10-01T06:22:44.765Z,1.27
2022-10-01T06:25:13.345Z,1.48
2022-10-01T06:27:40.150Z,1.60
2022-10-01T06:30:08.489Z,1.38
2022-10-01T06:32:35.578Z,1.13
2022-10-01T06:35:03.557Z,1.40
2022-10-01T06:37:30.367Z,1.52
2022-10-01T06:39:57.132Z,1.60
2022-10-01T06:42:23.930Z,1.45
2022-10-01T06:44:50.675Z,1.15
2022-10-01T06:47:17.506Z,1.48
2022-10-01T06:49:47.515Z,1.33
2022-10-01T06:52:33.358Z,1.58
2022-10-01T06:55:01.294Z,2.17
2022-10-01T06:57:28.769Z,1.75
2022-10-01T06:59:55.827Z,1.38
2022-10-01T07:02:28.925Z,1.58
2022-10-01T07:04:58.986Z,1.70
2022-10-01T07:07:33.088Z,1.83
2022-10-01T07:10:00.504Z,1.55
2022-10-01T07:12:27.797Z,1.55
2022-10-01T07:14:54.802Z,1.73
2022-10-01T07:17:22.657Z,2.00
2022-10-01T07:19:50.271Z,2.05
2022-10-01T07:22:19.246Z,1.90
2022-10-01T07:24:46.608Z,2.20
2022-10-01T07:27:14.391Z,3.58
2022-10-01T07:29:41.803Z,2.78
2022-10-01T07:32:10.320Z,3.30
2022-10-01T07:34:42.436Z,3.40
2022-10-01T07:37:09.500Z,2.70
2022-10-01T07:39:36.925Z,2.80
2022-10-01T07:42:04.455Z,3.25
2022-10-01T07:44:31.295Z,3.28
2022-10-01T07:46:58.004Z,2.95
2022-10-01T07:49:25.665Z,2.88
2022-10-01T07:51:54.450Z,2.88
2022-10-01T07:54:24.932Z,2.42
2022-10-01T07:56:55.856Z,2.65
2022-10-01T07:59:23.366Z,2.55
2022-10-01T08:01:54.110Z,2.17
2022-10-01T08:04:40.301Z,2.60
2022-10-01T08:07:08.155Z,2.70
2022-10-01T08:09:35.302Z,2.40
2022-10-01T08:12:02.907Z,2.65
2022-10-01T08:14:30.385Z,1.92
2022-10-01T08:16:57.522Z,2.10
2022-10-01T08:19:25.333Z,2.42
2022-10-01T08:21:53.129Z,2.10
2022-10-01T08:24:20.154Z,1.70
2022-10-01T08:26:53.204Z,2.38
2022-10-01T08:29:20.355Z,1.42
2022-10-01T08:31:47.391Z,1.45
2022-10-01T08:34:14.644Z,1.25
2022-10-01T08:36:41.386Z,1.48
2022-10-01T08:39:10.941Z,1.60
2022-10-01T08:42:12.519Z,1.33
2022-10-01T08:44:43.780Z,1.90
2022-10-01T08:47:23.374Z,1.75
2022-10-01T08:49:59.591Z,1.38
2022-10-01T08:52:30.770Z,1.85
2022-10-01T08:55:05.305Z,2.20
2022-10-01T08:57:39.509Z,1.63
2022-10-01T09:00:12.029Z,1.52
2022-10-01T09:02:41.181Z,1.58
2022-10-01T09:05:47.966Z,1.40
2022-10-01T09:08:50.428Z,1.83
2022-10-01T09:11:55.672Z,1.63
2022-10-01T09:15:00.164Z,2.10
2022-10-01T09:20:20.830Z,2.00
2022-10-01T09:22:52.797Z,1.67
2022-10-01T09:25:24.924Z,1.48
2022-10-01T09:27:57.182Z,1.30
2022-10-01T09:30:25.160Z,1.45
2022-10-01T09:33:16.041Z,1.70
2022-10-01T09:35:56.557Z,1.98
2022-10-01T09:38:40.247Z,1.90
2022-10-01T09:41:10.443Z,1.20
2022-10-01T09:43:39.762Z,1.75
2022-10-01T09:46:13.440Z,2.28
2022-10-01T09:48:56.013Z,1.13
2022-10-01T09:51:28.877Z,1.80
2022-10-01T09:54:02.338Z,1.60
2022-10-01T09:56:35.095Z,1.10
2022-10-01T09:59:08.251Z,0.85
2022-10-01T10:01:48.811Z,3.45
2022-10-01T10:04:23.690Z,1.27
2022-10-01T10:07:01.773Z,0.88
2022-10-01T10:09:32.002Z,1.20
2022-10-01T10:11:59.575Z,1.38
2022-10-01T10:14:36.591Z,1.77
2022-10-01T10:17:17.224Z,0.88
2022-10-01T10:19:51.715Z,1.40
2022-10-01T10:22:26.237Z,1.58
2022-10-01T10:24:57.888Z,1.50
2022-10-01T10:27:27.758Z,1.48
2022-10-01T10:30:14.621Z,1.88
2022-10-01T10:32:44.062Z,1.85
2022-10-01T10:35:14.778Z,0.95
2022-10-01T10:37:49.102Z,1.38
2022-10-01T10:40:25.721Z,1.02
2022-10-01T10:42:57.687Z,1.35
2022-10-01T10:45:35.487Z,1.00
2022-10-01T10:48:06.574Z,1.08
2022-10-01T10:50:37.077Z,0.93
2022-10-01T10:53:25.128Z,1.20
2022-10-01T10:56:00.154Z,1.02
2022-10-01T10:58:30.026Z,1.40
2022-10-01T11:01:00.912Z,1.73
2022-10-01T11:03:30.986Z,0.77
2022-10-01T11:06:04.221Z,1.05
2022-10-01T11:08:31.686Z,0.95
2022-10-01T11:10:58.446Z,1.15
2022-10-01T11:13:43.209Z,1.50
2022-10-01T11:16:27.658Z,1.40
2022-10-01T11:19:08.301Z,1.55
2022-10-01T11:21:56.024Z,1.10
2022-10-01T11:24:56.884Z,0.90
2022-10-01T11:27:36.827Z,0.88
2022-10-01T11:30:33.154Z,0.88
2022-10-01T11:33:30.618Z,1.30
2022-10-01T11:36:29.287Z,1.15
2022-10-01T11:39:10.652Z,0.68
2022-10-01T11:41:45.534Z,1.05
2022-10-01T11:44:13.660Z,1.77
2022-10-01T11:46:58.938Z,1.58
2022-10-01T11:49:46.740Z,1.10
2022-10-01T11:52:38.960Z,1.40
2022-10-01T11:55:45.640Z,1.65
2022-10-01T11:58:42.929Z,0.93
2022-10-01T12:01:32.877Z,1.85
2022-10-01T12:04:13.645Z,0.90
2022-10-01T12:06:49.380Z,1.58
2022-10-01T12:09:37.317Z,0.85
2022-10-01T12:12:12.348Z,1.23
2022-10-01T12:14:57.294Z,0.63
2022-10-01T12:17:32.381Z,0.90
2022-10-01T12:20:01.868Z,0.95
2022-10-01T12:22:35.361Z,1.52
2022-10-01T12:25:02.648Z,0.70
2022-10-01T12:27:35.718Z,0.98
2022-10-01T12:30:11.415Z,1.50
2022-10-01T12:32:46.700Z,0.75
2022-10-01T12:35:51.995Z,1.00
2022-10-01T12:38:32.126Z,0.77
2022-10-01T12:41:37.555Z,1.30
2022-10-01T12:44:34.215Z,1.10
2022-10-01T12:47:17.929Z,0.80
2022-10-01T12:50:04.351Z,2.15
2022-10-01T12:52:44.075Z,1.58
2022-10-01T12:55:59.030Z,1.05
2022-10-01T12:58:54.317Z,0.85
2022-10-01T13:01:47.028Z,1.30
2022-10-01T13:04:35.006Z,1.42
2022-10-01T13:07:35.643Z,0.98
2022-10-01T13:10:41.121Z,1.02
2022-10-01T13:13:38.515Z,2.28
2022-10-01T13:16:32.305Z,0.80
2022-10-01T13:19:09.187Z,1.65
2022-10-01T13:21:38.899Z,1.20
2022-10-01T13:24:11.688Z,0.73
2022-10-01T13:26:41.243Z,0.90
2022-10-01T13:29:13.817Z,2.00
2022-10-01T13:31:56.834Z,1.50
2022-10-01T13:34:40.183Z,1.00
2022-10-01T13:37:29.470Z,0.93
2022-10-01T13:39:58.617Z,1.02
2022-10-01T13:42:45.592Z,0.73
2022-10-01T13:45:26.617Z,0.88
2022-10-01T13:48:05.892Z,0.60
2022-10-01T13:50:32.889Z,1.13
2022-10-01T13:53:20.462Z,1.88
2022-10-01T13:55:47.932Z,1.23
2022-10-01T13:58:31.207Z,0.95
2022-10-01T14:01:04.061Z,1.45
2022-10-01T14:03:50.671Z,1.10
2022-10-01T14:06:26.834Z,0.90
2022-10-01T14:09:15.414Z,1.70
2022-10-01T14:12:11.042Z,1.13
2022-10-01T14:15:17.288Z,0.90
2022-10-01T14:17:45.658Z,0.77
2022-10-01T14:20:21.494Z,1.00
2022-10-01T14:23:01.978Z,1.08
2022-10-01T14:25:53.501Z,0.95
2022-10-01T14:28:46.774Z,0.70
2022-10-01T14:31:17.128Z,1.02
2022-10-01T14:34:06.964Z,1.02
2022-10-01T14:36:40.727Z,1.13
2022-10-01T14:39:22.657Z,1.17
2022-10-01T14:41:51.761Z,0.82
2022-10-01T14:44:51.467Z,1.70
2022-10-01T14:47:23.822Z,1.38
2022-10-01T14:49:51.796Z,1.42
2022-10-01T14:52:31.400Z,1.92
2022-10-01T14:55:04.466Z,1.60
2022-10-01T14:57:36.049Z,1.40
2022-10-01T15:00:10.323Z,1.00
2022-10-01T15:02:48.769Z,1.95
2022-10-01T15:05:33.882Z,1.58
2022-10-01T15:08:15.336Z,1.42
2022-10-01T15:10:49.566Z,1.27
2022-10-01T15:13:24.617Z,1.52
2022-10-01T15:15:52.344Z,1.50
2022-10-01T15:18:19.913Z,0.70
2022-10-01T15:21:06.352Z,0.95
2022-10-01T15:23:36.815Z,1.30
2022-10-01T15:26:08.686Z,1.20
2022-10-01T15:28:36.765Z,1.23
2022-10-01T15:31:06.367Z,1.50
2022-10-01T15:33:40.345Z,1.08
2022-10-01T15:36:18.370Z,1.55
2022-10-01T15:38:47.133Z,1.30
2022-10-01T15:41:32.531Z,1.30
2022-10-01T15:44:03.433Z,2.20
2022-10-01T15:46:33.360Z,1.67
2022-10-01T15:49:24.134Z,1.65
2022-10-01T15:52:14.592Z,1.55
2022-10-01T15:54:43.700Z,1.02
2022-10-01T15:57:17.620Z,2.00
2022-10-01T15:59:45.387Z,1.50
2022-10-01T16:02:19.995Z,1.13
2022-10-01T16:04:48.002Z,2.35
2022-10-01T16:07:27.343Z,1.38
2022-10-01T16:09:59.554Z,1.50
2022-10-01T16:12:27.891Z,1.77
2022-10-01T16:15:06.514Z,1.73
2022-10-01T16:17:39.798Z,1.98
2022-10-01T16:20:15.908Z,1.60
2022-10-01T16:22:51.651Z,1.15
2022-10-01T16:25:24.993Z,2.22
2022-10-01T16:27:58.583Z,2.05
2022-10-01T16:30:32.293Z,1.77
2022-10-01T16:35:35.875Z,1.40
2022-10-01T16:40:39.737Z,1.65
2022-10-01T16:43:08.131Z,0.90
2022-10-01T16:45:38.663Z,2.40
2022-10-01T16:48:19.509Z,1.52
2022-10-01T16:50:47.036Z,2.40
2022-10-01T16:53:16.264Z,1.05
2022-10-01T16:55:44.229Z,1.25
2022-10-01T16:58:11.403Z,1.50
2022-10-01T17:00:39.431Z,1.35
2022-10-01T17:03:15.151Z,2.20
2022-10-01T17:05:42.226Z,1.85
2022-10-01T17:08:12.696Z,1.55
2022-10-01T17:10:43.964Z,1.38
2022-10-01T17:13:15.779Z,1.55
2022-10-01T17:15:43.470Z,1.60
2022-10-01T17:18:10.812Z,1.42
2022-10-01T17:20:40.592Z,1.75
2022-10-01T17:23:24.220Z,1.70
2022-10-01T17:25:51.400Z,1.95
2022-10-01T17:28:20.293Z,2.45
2022-10-01T17:30:51.249Z,2.38
2022-10-01T17:33:23.116Z,2.75
2022-10-01T17:35:51.820Z,1.92
2022-10-01T17:38:19.529Z,2.03
2022-10-01T17:40:47.258Z,3.28
2022-10-01T17:43:15.897Z,2.05
2022-10-01T17:45:44.443Z,2.53
2022-10-01T17:48:12.815Z,3.00
2022-10-01T17:50:43.576Z,2.92
2022-10-01T17:53:12.073Z,2.55
2022-10-01T17:55:42.791Z,3.22
2022-10-01T17:58:09.901Z,3.00
2022-10-01T18:00:37.212Z,2.80
2022-10-01T18:03:04.499Z,3.15
2022-10-01T18:05:31.466Z,3.30
2022-10-01T18:07:58.389Z,3.88
2022-10-01T18:10:25.460Z,3.63
2022-10-01T18:12:52.475Z,3.58
2022-10-01T18:15:20.808Z,3.22
2022-10-01T18:18:24.862Z,3.40
2022-10-01T18:20:39.209Z,3.55
2022-10-01T18:23:06.181Z,4.65
2022-10-01T18:25:33.192Z,4.38
2022-10-01T18:28:00.222Z,4.28
2022-10-01T18:30:27.099Z,4.60
2022-10-01T18:32:57.027Z,4.13
2022-10-01T18:35:35.064Z,5.38
2022-10-01T18:38:10.457Z,4.40
2022-10-01T18:40:43.786Z,4.80
2022-10-01T18:43:24.476Z,4.72
2022-10-01T18:46:00.452Z,3.58
2022-10-01T18:48:54.777Z,3.20
2022-10-01T18:54:15.731Z,3.47
2022-10-01T18:57:31.691Z,2.92
2022-10-01T19:00:08.694Z,3.08
2022-10-01T19:03:07.779Z,2.55
2022-10-01T19:06:11.898Z,2.33
2022-10-01T19:08:57.028Z,2.33
2022-10-01T19:11:38.524Z,2.53
2022-10-01T19:14:23.969Z,2.00
2022-10-01T19:17:16.900Z,1.85
2022-10-01T19:20:09.797Z,2.90
2022-10-01T19:23:07.147Z,2.33
2022-10-01T19:25:51.019Z,2.45
2022-10-01T19:28:55.066Z,2.50
2022-10-01T19:31:30.730Z,2.58
2022-10-01T19:34:07.894Z,2.08
2022-10-01T19:36:40.250Z,3.35
2022-10-01T19:39:18.352Z,1.98
2022-10-01T19:41:51.333Z,2.85
2022-10-01T19:44:40.565Z,3.53
2022-10-01T19:47:23.301Z,2.47
2022-10-01T19:49:56.264Z,2.20
2022-10-01T19:52:25.914Z,3.00
2022-10-01T19:54:59.940Z,2.22
2022-10-01T19:57:28.921Z,2.67
2022-10-01T20:00:09.535Z,2.58
2022-10-01T20:02:39.437Z,2.33
2022-10-01T20:05:12.879Z,2.33
2022-10-01T20:07:49.542Z,2.72
2022-10-01T20:10:32.645Z,2.90
2022-10-01T20:13:22.211Z,3.70
2022-10-01T20:16:00.365Z,2.20
2022-10-01T20:18:32.930Z,2.13
2022-10-01T20:21:15.288Z,1.67
2022-10-01T20:23:49.365Z,2.75
2022-10-01T20:26:17.557Z,2.85
2022-10-01T20:28:53.766Z,2.65
2022-10-01T20:31:52.465Z,2.80
2022-10-01T20:34:54.079Z,3.30
2022-10-01T20:37:52.424Z,2.22
2022-10-01T20:41:01.609Z,2.70
2022-10-01T20:43:51.374Z,2.63
2022-10-01T20:46:36.219Z,1.83
2022-10-01T20:49:14.845Z,3.17
2022-10-01T20:51:51.290Z,3.53
2022-10-01T20:54:24.530Z,2.63
2022-10-01T20:57:24.609Z,2.55
2022-10-01T20:59:54.788Z,3.15
2022-10-01T21:02:45.054Z,3.00
2022-10-01T21:05:13.028Z,2.33
2022-10-01T21:08:07.115Z,2.33
2022-10-01T21:10:47.229Z,2.10
2022-10-01T21:13:31.438Z,2.42
2022-10-01T21:16:10.471Z,2.42
2022-10-01T21:19:07.961Z,2.20
2022-10-01T21:21:55.180Z,2.35
2022-10-01T21:24:34.446Z,2.40
2022-10-01T21:27:14.446Z,2.10
2022-10-01T21:30:06.539Z,2.70
2022-10-01T21:33:02.277Z,2.20
2022-10-01T21:35:44.426Z,3.00
2022-10-01T21:38:33.351Z,2.65
2022-10-01T21:41:02.839Z,2.15
2022-10-01T21:44:02.201Z,2.75
2022-10-01T21:46:38.899Z,2.17
2022-10-01T21:49:37.027Z,2.17
2022-10-01T21:52:13.144Z,2.58
2022-10-01T21:55:23.756Z,2.13
2022-10-01T21:57:51.413Z,3.50
2022-10-01T22:00:23.977Z,2.55
2022-10-01T22:03:20.319Z,2.85
2022-10-01T22:06:14.911Z,2.17
2022-10-01T22:09:16.305Z,2.95
2022-10-01T22:11:54.167Z,3.17
2022-10-01T22:14:21.909Z,1.83
2022-10-01T22:16:57.753Z,2.40
2022-10-01T22:19:40.059Z,1.52
2022-10-01T22:22:16.705Z,2.28
2022-10-01T22:24:54.134Z,2.50
2022-10-01T22:27:31.642Z,2.13
2022-10-01T22:30:15.491Z,3.08
2022-10-01T22:33:07.885Z,1.52
2022-10-01T22:35:45.248Z,2.85
2022-10-01T22:38:32.996Z,1.63
2022-10-01T22:41:30.936Z,4.40
2022-10-01T22:43:57.861Z,2.00
2022-10-01T22:46:42.879Z,1.98
2022-10-01T22:49:24.463Z,1.85
2022-10-01T22:52:03.011Z,1.77
2022-10-01T22:55:07.134Z,1.52
2022-10-01T22:57:56.126Z,1.73
2022-10-01T23:00:23.149Z,2.28
2022-10-01T23:03:08.585Z,2.35
2022-10-01T23:06:01.796Z,2.35
2022-10-01T23:08:40.695Z,2.35
2022-10-01T23:11:34.704Z,3.00
2022-10-01T23:14:07.436Z,1.88
2022-10-01T23:16:46.374Z,2.60
2022-10-01T23:19:35.517Z,2.75
2022-10-01T23:22:18.488Z,2.38
2022-10-01T23:25:11.526Z,1.92
2022-10-01T23:28:07.873Z,2.22
2022-10-01T23:31:07.108Z,2.58
2022-10-01T23:33:55.168Z,2.50
2022-10-01T23:36:21.829Z,4.55
2022-10-01T23:39:18.074Z,2.00
2022-10-01T23:41:59.995Z,2.35
2022-10-01T23:44:47.749Z,3.17
2022-10-01T23:47:20.908Z,2.35
2022-10-01T23:49:54.824Z,3.17
2022-10-01T23:52:45.205Z,2.63
2022-10-01T23:55:36.424Z,1.75
2022-10-01T23:58:07.203Z,2.33
